createdAt,value
2023-05-13T00:02:00.029Z,100.00
2023-05-13T00:05:02.071Z,100.00
2023-05-13T00:08:07.547Z,100.00
2023-05-13T00:11:09.690Z,99.77
2023-05-13T00:14:12.299Z,100.00
2023-05-13T00:17:15.617Z,100.00
2023-05-13T00:20:17.735Z,99.93
2023-05-13T00:23:20.183Z,100.00
2023-05-13T00:26:22.369Z,100.00
2023-05-13T00:29:26.238Z,100.00
2023-05-13T00:32:28.532Z,100.00
2023-05-13T00:35:31.977Z,100.00
2023-05-13T00:38:35.009Z,100.00
2023-05-13T00:41:38.839Z,99.78
2023-05-13T00:44:41.090Z,100.00
2023-05-13T00:47:44.136Z,100.00
2023-05-13T00:50:46.333Z,99.41
2023-05-13T00:53:49.447Z,100.00
2023-05-13T00:56:54.587Z,99.31
2023-05-13T00:59:57.325Z,98.70
2023-05-13T01:03:29.609Z,98.83
2023-05-13T01:07:08.119Z,99.38
2023-05-13T01:10:31.046Z,98.81
2023-05-13T01:13:39.866Z,99.33
2023-05-13T01:16:51.013Z,98.94
2023-05-13T01:19:56.576Z,99.18
2023-05-13T01:22:59.613Z,99.86
2023-05-13T01:26:02.237Z,99.19
2023-05-13T01:29:05.630Z,99.03
2023-05-13T01:32:09.857Z,98.75
2023-05-13T01:35:12.714Z,99.19
2023-05-13T01:38:21.548Z,98.76
2023-05-13T01:41:27.920Z,98.11
2023-05-13T01:44:30.621Z,98.33
2023-05-13T01:47:32.939Z,98.56
2023-05-13T01:50:36.954Z,98.09
2023-05-13T01:53:41.608Z,97.52
2023-05-13T01:56:44.491Z,97.83
2023-05-13T01:59:47.826Z,98.06
2023-05-13T02:02:50.077Z,97.43
2023-05-13T02:05:52.300Z,98.33
2023-05-13T02:08:55.078Z,97.72
2023-05-13T02:11:58.735Z,97.77
2023-05-13T02:15:01.462Z,97.44
2023-05-13T02:18:06.156Z,97.51
2023-05-13T02:21:08.291Z,98.02
2023-05-13T02:24:10.565Z,96.68
2023-05-13T02:27:16.414Z,97.47
2023-05-13T02:30:18.746Z,96.80
2023-05-13T02:33:21.744Z,96.54
2023-05-13T02:36:23.857Z,96.69
2023-05-13T02:39:25.945Z,96.99
2023-05-13T02:42:31.300Z,97.63
2023-05-13T02:45:33.980Z,97.60
2023-05-13T02:48:36.501Z,96.22
2023-05-13T02:51:39.106Z,95.87
2023-05-13T02:54:41.818Z,96.01
2023-05-13T02:57:44.034Z,96.24
2023-05-13T03:00:46.135Z,97.21
2023-05-13T03:03:48.427Z,96.10
2023-05-13T03:06:51.281Z,96.57
2023-05-13T03:09:54.673Z,96.37
2023-05-13T03:13:01.253Z,95.22
2023-05-13T03:16:03.596Z,95.49
2023-05-13T03:19:05.795Z,95.83
2023-05-13T03:22:08.168Z,98.84
2023-05-13T03:25:11.159Z,100.00
2023-05-13T03:28:22.138Z,100.00
2023-05-13T03:31:24.379Z,100.00
2023-05-13T03:34:26.865Z,100.00
2023-05-13T03:37:29.468Z,100.00
2023-05-13T03:40:31.683Z,100.00
2023-05-13T03:43:34.118Z,100.00
2023-05-13T03:46:39.493Z,100.00
2023-05-13T03:49:41.643Z,100.00
2023-05-13T03:52:46.243Z,100.00
2023-05-13T03:55:50.891Z,100.00
2023-05-13T03:58:59.621Z,100.00
2023-05-13T04:02:01.920Z,100.00
2023-05-13T04:05:06.387Z,100.00
2023-05-13T04:08:10.680Z,100.00
2023-05-13T04:11:13.427Z,100.00
2023-05-13T04:14:16.217Z,100.00
2023-05-13T04:17:19.267Z,100.00
2023-05-13T04:20:22.130Z,100.00
2023-05-13T04:23:25.079Z,100.00
2023-05-13T04:26:29.417Z,100.00
2023-05-13T04:29:31.397Z,100.00
2023-05-13T04:32:33.673Z,100.00
2023-05-13T04:35:35.893Z,100.00
2023-05-13T04:38:39.093Z,100.00
2023-05-13T04:41:42.563Z,100.00
2023-05-13T04:44:44.823Z,100.00
2023-05-13T04:47:47.406Z,100.00
2023-05-13T04:50:52.586Z,100.00
2023-05-13T04:53:55.255Z,100.00
2023-05-13T04:56:57.412Z,100.00
2023-05-13T05:00:00.470Z,100.00
2023-05-13T05:03:02.729Z,99.24
2023-05-13T05:06:05.150Z,98.42
2023-05-13T05:09:09.761Z,98.16
2023-05-13T05:12:12.500Z,96.86
2023-05-13T05:15:16.501Z,96.82
2023-05-13T05:18:22.045Z,96.76
2023-05-13T05:21:26.246Z,96.37
2023-05-13T05:24:29.192Z,95.30
2023-05-13T05:27:31.464Z,95.69
2023-05-13T05:34:25.985Z,95.16
2023-05-13T05:37:30.432Z,94.23
2023-05-13T05:40:33.220Z,94.52
2023-05-13T05:43:35.391Z,94.62
2023-05-13T05:46:37.859Z,93.67
2023-05-13T05:49:40.456Z,93.85
2023-05-13T05:53:03.909Z,93.72
2023-05-13T05:56:12.181Z,93.78
2023-05-13T05:59:14.231Z,92.41
2023-05-13T06:02:16.488Z,92.19
2023-05-13T06:05:19.081Z,92.87
2023-05-13T06:08:22.694Z,96.51
2023-05-13T06:11:26.330Z,96.63
2023-05-13T06:14:28.396Z,96.29
2023-05-13T06:17:33.822Z,95.72
2023-05-13T06:20:38.903Z,96.57
2023-05-13T06:23:41.192Z,96.56
2023-05-13T06:26:48.484Z,96.49
2023-05-13T06:29:51.153Z,95.46
2023-05-13T06:33:01.455Z,96.09
2023-05-13T06:36:05.444Z,96.93
2023-05-13T06:39:07.947Z,96.15
2023-05-13T06:42:14.134Z,96.09
2023-05-13T06:45:26.988Z,94.16
2023-05-13T06:48:29.422Z,95.35
2023-05-13T06:51:33.407Z,95.88
2023-05-13T06:54:35.596Z,95.75
2023-05-13T06:57:43.449Z,95.54
2023-05-13T07:00:47.143Z,94.33
2023-05-13T07:03:49.363Z,94.73
2023-05-13T07:06:51.986Z,94.09
2023-05-13T07:09:54.620Z,93.47
2023-05-13T07:12:57.262Z,92.41
2023-05-13T07:15:59.423Z,91.34
2023-05-13T07:19:01.535Z,91.04
2023-05-13T07:22:03.886Z,91.43
2023-05-13T07:25:07.279Z,91.54
2023-05-13T07:28:09.672Z,92.02
2023-05-13T07:31:12.996Z,92.34
2023-05-13T07:34:15.067Z,91.20
2023-05-13T07:37:17.449Z,91.90
2023-05-13T07:40:21.158Z,91.98
2023-05-13T07:43:28.031Z,91.15
2023-05-13T07:46:33.181Z,90.27
2023-05-13T07:49:35.211Z,91.11
2023-05-13T07:52:39.858Z,89.50
2023-05-13T07:55:43.135Z,90.00
2023-05-13T07:58:50.244Z,88.84
2023-05-13T08:01:56.512Z,88.23
2023-05-13T08:05:00.314Z,88.21
2023-05-13T08:08:07.396Z,88.96
2023-05-13T08:11:10.581Z,87.80
2023-05-13T08:14:13.227Z,88.16
2023-05-13T08:17:17.362Z,87.49
2023-05-13T08:20:20.305Z,88.20
2023-05-13T08:23:28.326Z,87.62
2023-05-13T08:26:42.407Z,88.38
2023-05-13T08:29:45.864Z,86.88
2023-05-13T08:32:48.626Z,87.52
2023-05-13T08:35:50.752Z,86.36
2023-05-13T08:38:53.196Z,86.14
2023-05-13T08:41:57.748Z,87.46
2023-05-13T08:45:07.361Z,89.04
2023-05-13T08:48:10.978Z,90.99
2023-05-13T08:51:13.216Z,89.84
2023-05-13T08:54:20.379Z,89.08
2023-05-13T08:57:26.507Z,88.96
2023-05-13T09:00:29.766Z,89.60
2023-05-13T09:03:32.173Z,89.67
2023-05-13T09:06:34.345Z,89.71
2023-05-13T09:09:37.738Z,89.24
2023-05-13T09:12:50.055Z,89.91
2023-05-13T09:15:52.199Z,89.26
2023-05-13T09:19:05.324Z,90.01
2023-05-13T09:22:17.586Z,89.80
2023-05-13T09:25:22.061Z,89.03
2023-05-13T09:28:24.305Z,88.37
2023-05-13T09:31:36.940Z,88.54
2023-05-13T09:34:39.704Z,88.29
2023-05-13T09:37:42.020Z,88.25
2023-05-13T09:41:13.532Z,86.98
2023-05-13T09:44:16.465Z,86.54
2023-05-13T09:47:18.565Z,83.93
2023-05-13T09:50:22.548Z,84.13
2023-05-13T09:53:25.848Z,81.71
2023-05-13T09:56:31.102Z,81.96
2023-05-13T09:59:36.494Z,79.02
2023-05-13T10:02:39.583Z,78.91
2023-05-13T10:05:42.292Z,78.22
2023-05-13T10:08:47.672Z,77.66
2023-05-13T10:11:49.965Z,78.38
2023-05-13T10:14:53.532Z,77.88
2023-05-13T10:17:57.656Z,78.27
2023-05-13T10:21:00.006Z,78.61
2023-05-13T10:24:02.487Z,78.89
2023-05-13T10:27:07.141Z,78.00
2023-05-13T10:30:10.559Z,79.01
2023-05-13T10:33:14.172Z,78.44
2023-05-13T10:36:39.565Z,78.24
2023-05-13T10:40:00.111Z,77.51
2023-05-13T10:43:18.151Z,76.70
2023-05-13T10:46:20.164Z,75.08
2023-05-13T10:49:24.724Z,72.91
2023-05-13T10:52:42.306Z,71.73
2023-05-13T10:55:48.143Z,71.40
2023-05-13T10:59:00.164Z,71.35
2023-05-13T11:02:37.520Z,71.16
2023-05-13T11:05:43.824Z,71.34
2023-05-13T11:08:47.938Z,71.20
2023-05-13T11:11:54.624Z,71.54
2023-05-13T11:14:56.794Z,72.56
2023-05-13T11:17:59.560Z,72.57
2023-05-13T11:21:06.827Z,72.88
2023-05-13T11:24:12.090Z,73.07
2023-05-13T11:27:18.195Z,72.29
2023-05-13T11:30:26.126Z,72.74
2023-05-13T11:34:09.814Z,73.50
2023-05-13T11:37:12.144Z,73.29
2023-05-13T11:40:23.431Z,74.19
2023-05-13T11:43:26.647Z,73.86
2023-05-13T11:46:29.349Z,73.97
2023-05-13T11:49:34.145Z,74.86
2023-05-13T11:52:36.127Z,74.80
2023-05-13T11:55:38.151Z,75.36
2023-05-13T11:58:40.479Z,74.76
2023-05-13T12:01:42.812Z,74.08
2023-05-13T12:04:45.543Z,74.31
2023-05-13T12:07:47.918Z,75.72
2023-05-13T12:10:50.000Z,75.58
2023-05-13T12:13:53.199Z,75.49
2023-05-13T12:16:56.714Z,75.95
2023-05-13T12:20:18.416Z,75.69
2023-05-13T12:23:20.496Z,75.49
2023-05-13T12:26:22.926Z,75.62
2023-05-13T12:29:24.923Z,75.93
2023-05-13T12:32:27.215Z,75.85
2023-05-13T12:35:29.334Z,75.40
2023-05-13T12:38:31.412Z,74.91
2023-05-13T12:41:35.994Z,75.62
2023-05-13T12:44:39.098Z,75.96
2023-05-13T12:47:51.161Z,75.38
2023-05-13T12:50:53.549Z,75.88
2023-05-13T12:53:55.992Z,75.40
2023-05-13T12:56:58.280Z,75.79
2023-05-13T13:00:00.354Z,76.23
2023-05-13T13:03:03.048Z,77.77
2023-05-13T13:06:05.420Z,77.83
2023-05-13T13:09:07.730Z,78.57
2023-05-13T13:12:09.817Z,80.13
2023-05-13T13:18:14.570Z,79.63
2023-05-13T13:21:16.610Z,84.15
2023-05-13T13:24:19.012Z,86.26
2023-05-13T13:27:21.274Z,87.37
2023-05-13T13:30:23.458Z,85.03
2023-05-13T13:33:25.543Z,85.42
2023-05-13T13:36:27.655Z,84.64
2023-05-13T13:39:29.727Z,85.05
2023-05-13T13:42:43.338Z,85.37
2023-05-13T13:45:46.587Z,84.55
2023-05-13T13:48:48.790Z,85.31
2023-05-13T13:51:52.437Z,84.89
2023-05-13T13:54:55.158Z,84.98
2023-05-13T13:57:57.311Z,85.00
2023-05-13T14:00:59.422Z,86.00
2023-05-13T14:04:16.383Z,85.53
2023-05-13T14:07:18.452Z,85.45
2023-05-13T14:10:21.019Z,84.50
2023-05-13T14:13:23.318Z,85.30
2023-05-13T14:16:25.708Z,87.93
2023-05-13T14:19:31.048Z,88.01
2023-05-13T14:22:33.031Z,87.76
2023-05-13T14:25:35.918Z,87.37
2023-05-13T14:29:03.095Z,87.52
2023-05-13T14:32:30.000Z,86.56
2023-05-13T14:35:32.825Z,87.20
2023-05-13T14:38:35.508Z,86.61
2023-05-13T14:41:37.617Z,86.30
2023-05-13T14:44:41.691Z,86.02
2023-05-13T14:47:43.873Z,86.36
2023-05-13T14:50:46.964Z,86.07
2023-05-13T14:53:53.754Z,86.64
2023-05-13T14:56:56.800Z,86.18
2023-05-13T15:00:00.029Z,85.45
2023-05-13T15:03:03.745Z,85.52
2023-05-13T15:06:06.816Z,84.91
2023-05-13T15:09:14.973Z,86.19
2023-05-13T15:12:19.797Z,85.42
2023-05-13T15:15:25.393Z,85.16
2023-05-13T15:18:37.353Z,84.82
2023-05-13T15:21:42.230Z,85.82
2023-05-13T15:24:48.534Z,84.91
2023-05-13T15:27:53.994Z,85.22
2023-05-13T15:30:58.815Z,84.91
2023-05-13T15:34:03.207Z,85.83
2023-05-13T15:37:05.430Z,86.56
2023-05-13T15:40:08.158Z,86.02
2023-05-13T15:43:10.656Z,86.28
2023-05-13T15:46:13.424Z,86.04
2023-05-13T15:49:15.870Z,86.24
2023-05-13T15:52:17.901Z,86.01
2023-05-13T15:55:29.327Z,86.55
2023-05-13T15:58:32.572Z,86.59
2023-05-13T16:01:36.115Z,87.02
2023-05-13T16:04:41.188Z,87.83
2023-05-13T16:07:43.437Z,87.92
2023-05-13T16:11:13.047Z,87.56
2023-05-13T16:14:18.859Z,87.34
2023-05-13T16:17:21.614Z,87.74
2023-05-13T16:20:23.944Z,88.51
2023-05-13T16:23:59.006Z,87.15
2023-05-13T16:27:00.987Z,87.50
2023-05-13T16:30:05.953Z,88.02
2023-05-13T16:33:09.639Z,87.97
2023-05-13T16:36:14.557Z,87.45
2023-05-13T16:39:16.762Z,87.57
2023-05-13T16:42:19.790Z,87.78
2023-05-13T16:45:22.176Z,88.09
2023-05-13T16:48:28.064Z,87.11
2023-05-13T16:51:30.482Z,87.55
2023-05-13T16:54:33.054Z,87.54
2023-05-13T16:57:35.138Z,87.62
2023-05-13T17:00:39.488Z,88.29
2023-05-13T17:03:51.663Z,88.38
2023-05-13T17:06:58.855Z,87.75
2023-05-13T17:10:01.313Z,87.46
2023-05-13T17:13:03.411Z,87.02
2023-05-13T17:16:11.022Z,87.51
2023-05-13T17:19:13.709Z,86.48
2023-05-13T17:22:15.781Z,86.31
2023-05-13T17:25:17.959Z,87.57
2023-05-13T17:28:20.022Z,87.64
2023-05-13T17:31:23.584Z,85.98
2023-05-13T17:34:25.719Z,86.08
2023-05-13T17:37:27.740Z,88.00
2023-05-13T17:40:29.736Z,91.47
2023-05-13T17:43:32.061Z,90.15
2023-05-13T17:46:37.421Z,89.68
2023-05-13T17:49:40.721Z,89.19
2023-05-13T17:52:42.748Z,94.67
2023-05-13T17:55:44.904Z,100.00
2023-05-13T17:58:49.210Z,92.74
2023-05-13T18:01:53.016Z,85.28
2023-05-13T18:04:55.510Z,80.86
2023-05-13T18:07:57.545Z,83.93
2023-05-13T18:10:59.495Z,79.65
2023-05-13T18:14:01.429Z,86.99
2023-05-13T18:17:04.373Z,94.74
2023-05-13T18:20:07.179Z,93.97
2023-05-13T18:23:09.465Z,96.96
2023-05-13T18:26:11.602Z,100.00
2023-05-13T18:29:13.609Z,100.00
2023-05-13T18:32:16.284Z,100.00
2023-05-13T18:35:21.410Z,100.00
2023-05-13T18:38:23.705Z,100.00
2023-05-13T18:41:25.946Z,100.00
2023-05-13T18:44:28.218Z,100.00
2023-05-13T18:47:30.411Z,100.00
2023-05-13T18:50:32.565Z,100.00
2023-05-13T18:53:34.808Z,100.00
2023-05-13T18:56:38.075Z,100.00
2023-05-13T18:59:41.666Z,100.00
2023-05-13T19:02:44.025Z,100.00
2023-05-13T19:05:46.375Z,100.00
2023-05-13T19:08:48.551Z,100.00
2023-05-13T19:11:50.701Z,100.00
2023-05-13T19:14:52.959Z,100.00
2023-05-13T19:17:55.305Z,100.00
2023-05-13T19:20:58.566Z,100.00
2023-05-13T19:24:02.081Z,100.00
2023-05-13T19:27:07.187Z,100.00
2023-05-13T19:30:09.875Z,100.00
2023-05-13T19:33:12.859Z,100.00
2023-05-13T19:36:15.092Z,100.00
2023-05-13T19:39:17.465Z,100.00
2023-05-13T19:42:19.799Z,100.00
2023-05-13T19:45:22.424Z,100.00
2023-05-13T19:48:24.938Z,100.00
2023-05-13T19:51:27.247Z,100.00
2023-05-13T19:54:29.586Z,100.00
2023-05-13T19:57:32.007Z,100.00
2023-05-13T20:00:34.092Z,100.00
2023-05-13T20:03:38.374Z,100.00
2023-05-13T20:06:40.694Z,100.00
2023-05-13T20:09:43.265Z,100.00
2023-05-13T20:12:45.391Z,100.00
2023-05-13T20:15:50.491Z,100.00
2023-05-13T20:18:52.535Z,100.00
2023-05-13T20:21:54.653Z,100.00
2023-05-13T20:24:56.822Z,100.00
2023-05-13T20:27:58.914Z,99.24
2023-05-13T20:31:04.717Z,98.79
2023-05-13T20:34:07.106Z,97.47
2023-05-13T20:37:09.359Z,96.74
2023-05-13T20:40:11.821Z,97.00
2023-05-13T20:43:17.016Z,96.17
2023-05-13T20:46:19.218Z,95.88
2023-05-13T20:49:21.680Z,96.51
2023-05-13T20:52:24.116Z,96.29
2023-05-13T20:55:26.562Z,95.21
2023-05-13T20:58:28.659Z,97.03
2023-05-13T21:01:31.225Z,94.99
2023-05-13T21:04:33.340Z,93.42
2023-05-13T21:07:35.750Z,100.00
2023-05-13T21:10:37.954Z,100.00
2023-05-13T21:13:40.001Z,100.00
2023-05-13T21:16:42.668Z,100.00
2023-05-13T21:19:44.746Z,99.73
2023-05-13T21:22:46.948Z,98.13
2023-05-13T21:25:49.362Z,96.95
2023-05-13T21:28:51.487Z,96.96
2023-05-13T21:31:54.670Z,96.26
2023-05-13T21:34:56.861Z,96.07
2023-05-13T21:38:08.723Z,95.58
2023-05-13T21:41:13.844Z,95.95
2023-05-13T21:44:16.415Z,94.41
2023-05-13T21:47:20.119Z,95.71
2023-05-13T21:50:22.443Z,95.14
2023-05-13T21:53:24.712Z,96.23
2023-05-13T21:56:27.238Z,95.97
2023-05-13T21:59:29.345Z,95.75
2023-05-13T22:02:31.586Z,95.75
2023-05-13T22:05:33.644Z,94.79
2023-05-13T22:08:35.736Z,95.52
2023-05-13T22:11:37.746Z,94.85
2023-05-13T22:14:39.744Z,95.40
2023-05-13T22:17:41.937Z,96.18
2023-05-13T22:20:44.073Z,94.96
2023-05-13T22:23:46.093Z,94.88
2023-05-13T22:26:48.082Z,95.06
2023-05-13T22:29:50.133Z,95.56
2023-05-13T22:32:52.290Z,94.94
2023-05-13T22:35:54.451Z,95.40
2023-05-13T22:38:57.487Z,95.53
2023-05-13T22:41:59.549Z,94.91
2023-05-13T22:45:01.988Z,95.18
2023-05-13T22:48:04.672Z,95.45
2023-05-13T22:51:06.880Z,95.01
2023-05-13T22:54:08.988Z,94.80
2023-05-13T22:57:11.331Z,94.32
2023-05-13T23:00:13.811Z,95.45
2023-05-13T23:03:15.822Z,94.97
2023-05-13T23:06:17.857Z,95.25
2023-05-13T23:09:20.320Z,95.21
2023-05-13T23:12:22.439Z,95.93
2023-05-13T23:15:24.798Z,96.66
2023-05-13T23:18:26.969Z,97.45
2023-05-13T23:21:29.099Z,96.58
2023-05-13T23:24:31.618Z,97.42
2023-05-13T23:27:33.972Z,97.40
2023-05-13T23:30:36.315Z,97.77
2023-05-13T23:33:38.498Z,96.86
2023-05-13T23:36:40.761Z,97.11
2023-05-13T23:39:42.770Z,98.17
2023-05-13T23:42:44.798Z,98.60
2023-05-13T23:45:47.060Z,97.01
2023-05-13T23:48:49.075Z,98.01
2023-05-13T23:51:51.521Z,98.00
2023-05-13T23:54:53.784Z,97.84
2023-05-13T23:57:56.098Z,97.49
